Time;durP1;ratioP1;P1;durP2;ratioP2;P2;SDS_P1;SDS_P2;PMS_P1;PMS_P2;Temp;Humidity;BMP_temperature;BMP_pressure;BME280_temperature;BME280_humidity;BME280_pressure;Samples;Min_cycle;Max_cycle;Signal;HPM_P1;HPM_P2
2022/09/24 00:01:59;;;;;;;41.92;25.40;;;;;;;;;;5115806;28;20027;-78
2022/09/24 00:04:26;;;;;;;43.05;27.38;;;;;;;;;;5115903;28;20028;-78
2022/09/24 00:06:52;;;;;;;44.63;26.88;;;;;;;;;;5115637;28;20030;-78
2022/09/24 00:09:20;;;;;;;42.53;26.20;;;;;;;;;;5108699;28;20205;-78
2022/09/24 00:11:48;;;;;;;46.78;27.67;;;;;;;;;;5115567;28;20030;-78
2022/09/24 00:14:14;;;;;;;45.80;26.63;;;;;;;;;;5115501;28;20024;-78
2022/09/24 00:16:41;;;;;;;41.75;25.77;;;;;;;;;;5096681;28;20451;-78
2022/09/24 00:19:07;;;;;;;39.42;24.23;;;;;;;;;;5115448;28;20102;-78
2022/09/24 00:21:34;;;;;;;41.72;25.23;;;;;;;;;;5115480;28;20023;-78
2022/09/24 00:24:02;;;;;;;39.30;24.48;;;;;;;;;;5096931;28;20022;-77
2022/09/24 00:29:14;;;;;;;34.03;22.73;;;;;;;;;;5115193;28;20084;-77
2022/09/24 00:31:40;;;;;;;36.00;22.70;;;;;;;;;;5114728;28;20028;-77
2022/09/24 00:34:06;;;;;;;40.92;25.40;;;;;;;;;;5114858;28;20023;-77
2022/09/24 00:36:32;;;;;;;39.90;23.45;;;;;;;;;;5114803;28;20470;-77
2022/09/24 00:38:59;;;;;;;36.47;23.40;;;;;;;;;;5114847;28;20489;-77
2022/09/24 00:41:27;;;;;;;40.85;24.27;;;;;;;;;;5114573;28;20023;-77
2022/09/24 00:43:53;;;;;;;38.10;22.80;;;;;;;;;;5114477;28;20028;-77
2022/09/24 00:46:25;;;;;;;34.42;20.35;;;;;;;;;;5113459;28;20026;-77
2022/09/24 00:48:52;;;;;;;36.38;21.88;;;;;;;;;;5114625;28;20084;-77
2022/09/24 00:51:20;;;;;;;32.72;21.25;;;;;;;;;;5114387;28;20513;-77
2022/09/24 00:53:48;;;;;;;36.45;22.25;;;;;;;;;;5114697;28;20024;-77
2022/09/24 00:56:14;;;;;;;36.15;21.10;;;;;;;;;;5114401;28;20034;-77
2022/09/24 00:58:42;;;;;;;36.50;21.80;;;;;;;;;;5109502;28;20039;-78
2022/09/24 01:01:08;;;;;;;34.17;21.90;;;;;;;;;;5096178;28;20129;-78
2022/09/24 01:03:39;;;;;;;36.08;22.40;;;;;;;;;;5114400;28;20023;-78
2022/09/24 01:06:06;;;;;;;34.55;21.48;;;;;;;;;;5114390;28;20462;-78
2022/09/24 01:08:33;;;;;;;38.25;22.52;;;;;;;;;;5114402;28;20110;-78
2022/09/24 01:11:02;;;;;;;44.13;25.13;;;;;;;;;;5114277;28;20064;-77
2022/09/24 01:13:28;;;;;;;38.50;23.30;;;;;;;;;;5114219;28;20030;-77
2022/09/24 01:16:05;;;;;;;39.38;23.70;;;;;;;;;;5114007;28;20404;-78
2022/09/24 01:18:37;;;;;;;39.20;22.70;;;;;;;;;;5114255;28;20047;-78
2022/09/24 01:21:15;;;;;;;41.00;23.73;;;;;;;;;;5114320;28;20046;-78
2022/09/24 01:23:44;;;;;;;43.40;24.85;;;;;;;;;;5095659;28;20122;-77
2022/09/24 01:26:18;;;;;;;43.53;24.23;;;;;;;;;;5114035;28;20020;-77
2022/09/24 01:28:44;;;;;;;43.63;25.58;;;;;;;;;;5114120;28;20024;-77
2022/09/24 01:31:14;;;;;;;43.17;25.60;;;;;;;;;;5107577;28;20043;-77
2022/09/24 01:33:41;;;;;;;44.78;25.15;;;;;;;;;;5093557;28;20020;-77
2022/09/24 01:36:08;;;;;;;46.22;26.08;;;;;;;;;;5075222;28;20448;-78
2022/09/24 01:38:41;;;;;;;43.30;24.83;;;;;;;;;;5093474;28;20035;-77
2022/09/24 01:41:09;;;;;;;45.28;25.73;;;;;;;;;;5093389;28;20020;-77
2022/09/24 01:43:35;;;;;;;51.03;28.50;;;;;;;;;;5093391;28;20082;-78
2022/09/24 01:46:05;;;;;;;54.75;28.58;;;;;;;;;;5097693;28;20019;-77
2022/09/24 01:48:33;;;;;;;55.40;30.27;;;;;;;;;;5113519;28;20020;-77
2022/09/24 01:51:04;;;;;;;61.72;31.40;;;;;;;;;;5113522;28;20026;-77
2022/09/24 01:53:41;;;;;;;54.47;29.80;;;;;;;;;;5113429;28;20032;-78
2022/09/24 01:56:15;;;;;;;51.30;28.63;;;;;;;;;;5113606;28;20024;-77
2022/09/24 01:58:47;;;;;;;50.25;29.52;;;;;;;;;;5112566;28;20370;-77
2022/09/24 02:01:24;;;;;;;65.78;32.25;;;;;;;;;;5113113;28;20019;-77
2022/09/24 02:03:56;;;;;;;60.35;31.75;;;;;;;;;;5113215;28;20149;-77
2022/09/24 02:06:38;;;;;;;51.13;29.50;;;;;;;;;;5113052;28;20059;-77
2022/09/24 02:09:05;;;;;;;54.00;30.10;;;;;;;;;;5100836;28;20389;-77
2022/09/24 02:11:32;;;;;;;50.25;28.20;;;;;;;;;;5092751;28;20379;-77
2022/09/24 02:14:02;;;;;;;45.47;27.52;;;;;;;;;;5092693;28;20085;-78
2022/09/24 02:16:30;;;;;;;54.55;30.00;;;;;;;;;;5092153;28;20541;-77
2022/09/24 02:18:58;;;;;;;52.10;30.15;;;;;;;;;;5092583;28;20134;-78
2022/09/24 02:21:25;;;;;;;51.28;28.23;;;;;;;;;;5092664;28;20039;-77
2022/09/24 02:23:54;;;;;;;56.95;28.70;;;;;;;;;;5092589;28;20084;-77
2022/09/24 02:26:20;;;;;;;50.88;28.90;;;;;;;;;;5092351;28;20103;-78
2022/09/24 02:28:46;;;;;;;55.22;29.58;;;;;;;;;;5092370;28;20031;-77
2022/09/24 02:31:26;;;;;;;53.33;29.17;;;;;;;;;;5092288;28;20415;-78
2022/09/24 02:36:38;;;;;;;46.78;26.85;;;;;;;;;;5092254;28;20046;-77
2022/09/24 02:39:04;;;;;;;50.40;27.63;;;;;;;;;;5092188;28;20024;-77
2022/09/24 02:41:31;;;;;;;48.20;27.02;;;;;;;;;;5092334;28;20081;-77
2022/09/24 02:43:57;;;;;;;50.10;28.27;;;;;;;;;;5092165;28;20016;-78
2022/09/24 02:46:23;;;;;;;46.63;26.20;;;;;;;;;;5095706;28;20020;-77
2022/09/24 02:48:50;;;;;;;44.50;25.70;;;;;;;;;;5112582;28;20505;-77
2022/09/24 02:51:16;;;;;;;45.45;26.67;;;;;;;;;;5112506;28;20059;-77
2022/09/24 02:53:42;;;;;;;48.67;27.60;;;;;;;;;;5112518;28;20027;-78
2022/09/24 02:56:08;;;;;;;46.80;27.02;;;;;;;;;;5112345;28;20076;-78
2022/09/24 02:58:36;;;;;;;46.28;26.77;;;;;;;;;;5098711;28;20445;-77
2022/09/24 03:01:03;;;;;;;47.80;27.20;;;;;;;;;;5092079;28;20210;-77
2022/09/24 03:03:29;;;;;;;43.88;27.25;;;;;;;;;;5092094;28;20020;-78
2022/09/24 03:05:55;;;;;;;51.63;30.67;;;;;;;;;;5091994;28;20027;-77
2022/09/24 03:08:23;;;;;;;50.10;30.10;;;;;;;;;;5092048;28;20032;-77
2022/09/24 03:10:49;;;;;;;52.65;30.85;;;;;;;;;;5094838;28;20027;-77
2022/09/24 03:13:16;;;;;;;47.95;29.30;;;;;;;;;;5096275;28;20020;-78
2022/09/24 03:15:43;;;;;;;51.10;29.80;;;;;;;;;;5096037;28;20414;-78
2022/09/24 03:18:09;;;;;;;48.70;28.38;;;;;;;;;;5095880;28;20048;-77
2022/09/24 03:20:35;;;;;;;49.88;29.63;;;;;;;;;;5096111;28;20021;-77
2022/09/24 03:23:01;;;;;;;48.20;28.42;;;;;;;;;;5095993;28;20024;-77
2022/09/24 03:25:27;;;;;;;48.55;28.33;;;;;;;;;;5096060;28;20099;-77
2022/09/24 03:27:53;;;;;;;51.55;28.00;;;;;;;;;;5095971;28;20035;-78
2022/09/24 03:33:04;;;;;;;40.25;25.85;;;;;;;;;;5095703;28;20444;-77
2022/09/24 03:35:30;;;;;;;44.47;25.95;;;;;;;;;;5095531;28;20481;-77
2022/09/24 03:37:56;;;;;;;43.00;25.58;;;;;;;;;;5095638;28;20035;-78
2022/09/24 03:40:23;;;;;;;44.30;26.35;;;;;;;;;;5095779;28;20031;-77
2022/09/24 03:42:49;;;;;;;38.95;24.35;;;;;;;;;;5077327;28;20134;-77
2022/09/24 03:45:15;;;;;;;39.00;24.48;;;;;;;;;;5095552;28;20500;-77
2022/09/24 03:47:41;;;;;;;39.22;23.50;;;;;;;;;;5095425;28;20047;-77
2022/09/24 03:50:10;;;;;;;37.38;22.23;;;;;;;;;;5095526;28;20062;-77
2022/09/24 03:52:36;;;;;;;39.97;24.45;;;;;;;;;;5087585;28;20023;-77
2022/09/24 03:55:02;;;;;;;37.60;22.92;;;;;;;;;;5095496;28;20026;-77
2022/09/24 03:57:28;;;;;;;34.13;21.50;;;;;;;;;;5095541;28;20035;-77
2022/09/24 03:59:54;;;;;;;36.13;22.20;;;;;;;;;;5095222;28;20036;-77
2022/09/24 04:02:20;;;;;;;39.55;22.67;;;;;;;;;;5095224;28;20021;-77
2022/09/24 04:04:46;;;;;;;34.55;21.98;;;;;;;;;;5095066;28;20024;-77
2022/09/24 04:07:12;;;;;;;35.65;21.50;;;;;;;;;;5094985;28;20177;-77
2022/09/24 04:09:38;;;;;;;37.65;22.73;;;;;;;;;;5094991;28;20508;-78
2022/09/24 04:12:05;;;;;;;35.05;22.20;;;;;;;;;;5094904;28;20028;-77
2022/09/24 04:14:31;;;;;;;34.00;20.80;;;;;;;;;;5095062;28;20028;-77
2022/09/24 04:16:57;;;;;;;33.60;20.35;;;;;;;;;;5094755;28;20036;-77
2022/09/24 04:19:25;;;;;;;36.30;21.70;;;;;;;;;;5094787;28;20398;-77
2022/09/24 04:21:51;;;;;;;32.03;19.42;;;;;;;;;;5093574;28;20016;-77
2022/09/24 04:24:17;;;;;;;37.05;20.88;;;;;;;;;;5094605;28;20043;-77
2022/09/24 04:26:44;;;;;;;31.98;19.25;;;;;;;;;;5094627;28;20028;-77
2022/09/24 04:29:12;;;;;;;31.65;19.55;;;;;;;;;;5094714;28;20051;-77
2022/09/24 04:31:39;;;;;;;31.67;19.13;;;;;;;;;;5094509;28;20024;-77
2022/09/24 04:34:05;;;;;;;31.75;19.88;;;;;;;;;;5076236;28;20020;-77
2022/09/24 04:36:31;;;;;;;31.38;19.10;;;;;;;;;;5094407;28;20454;-77
2022/09/24 04:38:58;;;;;;;31.70;18.17;;;;;;;;;;5094427;28;20024;-77
2022/09/24 04:41:24;;;;;;;30.63;19.73;;;;;;;;;;5094285;28;20020;-77
2022/09/24 04:43:50;;;;;;;32.28;18.80;;;;;;;;;;5094548;28;20149;-77
2022/09/24 04:46:17;;;;;;;31.67;20.08;;;;;;;;;;5094111;28;20377;-77
2022/09/24 04:48:44;;;;;;;31.05;18.90;;;;;;;;;;5094979;28;20020;-77
2022/09/24 04:51:10;;;;;;;34.83;20.98;;;;;;;;;;5114626;28;20059;-77
2022/09/24 04:53:36;;;;;;;32.22;19.33;;;;;;;;;;5114695;28;20020;-77
2022/09/24 04:56:03;;;;;;;33.20;20.00;;;;;;;;;;5095827;28;20043;-77
2022/09/24 04:58:29;;;;;;;39.05;20.00;;;;;;;;;;5101899;28;20099;-77
2022/09/24 05:00:55;;;;;;;30.67;18.88;;;;;;;;;;5093962;28;20051;-77
2022/09/24 05:03:21;;;;;;;38.42;20.27;;;;;;;;;;5093918;28;20020;-77
2022/09/24 05:05:48;;;;;;;31.05;18.65;;;;;;;;;;5093747;28;20430;-77
2022/09/24 05:08:16;;;;;;;30.27;19.20;;;;;;;;;;5093662;28;20157;-76
2022/09/24 05:10:42;;;;;;;29.63;18.48;;;;;;;;;;5093728;28;20016;-77
2022/09/24 05:13:08;;;;;;;39.45;22.13;;;;;;;;;;5075436;28;20423;-77
2022/09/24 05:15:35;;;;;;;30.95;19.30;;;;;;;;;;5093772;28;20056;-77
2022/09/24 05:18:01;;;;;;;31.23;18.80;;;;;;;;;;5093403;28;20062;-77
2022/09/24 05:20:27;;;;;;;31.00;18.80;;;;;;;;;;5093458;28;20039;-77
2022/09/24 05:22:53;;;;;;;31.83;19.65;;;;;;;;;;5075109;28;20032;-77
2022/09/24 05:25:20;;;;;;;31.88;19.58;;;;;;;;;;5075000;28;20427;-77
2022/09/24 05:27:47;;;;;;;34.63;20.05;;;;;;;;;;5093097;28;20077;-77
2022/09/24 05:30:13;;;;;;;30.85;18.52;;;;;;;;;;5093180;28;20035;-78
2022/09/24 05:32:40;;;;;;;33.20;19.42;;;;;;;;;;5092982;28;20020;-77
2022/09/24 05:35:09;;;;;;;33.03;20.13;;;;;;;;;;5093266;28;20023;-77
2022/09/24 05:37:36;;;;;;;28.65;18.45;;;;;;;;;;5093220;28;20035;-77
2022/09/24 05:42:48;;;;;;;31.67;19.88;;;;;;;;;;5093091;28;20547;-77
2022/09/24 05:45:17;;;;;;;31.48;19.67;;;;;;;;;;5092960;28;20382;-77
2022/09/24 05:47:46;;;;;;;31.63;19.02;;;;;;;;;;5084788;28;20369;-77
2022/09/24 05:50:13;;;;;;;32.15;19.38;;;;;;;;;;5113276;28;20162;-77
2022/09/24 05:52:41;;;;;;;34.38;19.92;;;;;;;;;;5113214;28;20092;-77
2022/09/24 05:55:08;;;;;;;33.97;20.10;;;;;;;;;;5113303;28;20020;-77
2022/09/24 05:57:35;;;;;;;32.72;20.10;;;;;;;;;;5112840;28;20034;-78
2022/09/24 06:00:01;;;;;;;30.83;19.77;;;;;;;;;;5112987;28;20129;-77
2022/09/24 06:02:27;;;;;;;34.55;20.77;;;;;;;;;;5094489;28;20015;-77
2022/09/24 06:04:53;;;;;;;29.98;19.17;;;;;;;;;;5113064;28;20034;-78
2022/09/24 06:07:20;;;;;;;36.05;18.17;;;;;;;;;;5112946;28;20034;-78
2022/09/24 06:09:46;;;;;;;34.03;20.55;;;;;;;;;;5094118;28;20019;-77
2022/09/24 06:12:13;;;;;;;30.70;19.30;;;;;;;;;;5092372;28;20123;-77
2022/09/24 06:14:41;;;;;;;29.08;18.40;;;;;;;;;;5092609;28;20024;-77
2022/09/24 06:17:07;;;;;;;29.08;18.33;;;;;;;;;;5092124;28;20040;-77
2022/09/24 06:19:33;;;;;;;31.48;20.30;;;;;;;;;;5092484;28;20040;-77
2022/09/24 06:21:59;;;;;;;29.23;18.95;;;;;;;;;;5092394;28;20382;-77
2022/09/24 06:24:25;;;;;;;32.58;20.13;;;;;;;;;;5092434;28;20020;-77
2022/09/24 06:26:51;;;;;;;30.10;19.60;;;;;;;;;;5092192;28;20024;-77
2022/09/24 06:29:18;;;;;;;28.52;17.77;;;;;;;;;;5092202;28;20047;-77
2022/09/24 06:31:44;;;;;;;28.23;17.55;;;;;;;;;;5092277;28;20024;-77
2022/09/24 06:34:10;;;;;;;29.25;18.02;;;;;;;;;;5092181;28;20024;-77
2022/09/24 06:36:36;;;;;;;30.23;18.33;;;;;;;;;;5091927;28;20081;-77
2022/09/24 06:39:02;;;;;;;27.35;18.02;;;;;;;;;;5092124;28;20039;-77
2022/09/24 06:41:28;;;;;;;31.48;19.00;;;;;;;;;;5092013;28;20080;-77
2022/09/24 06:43:55;;;;;;;27.17;17.15;;;;;;;;;;5091551;28;20442;-78
2022/09/24 06:46:24;;;;;;;30.10;18.60;;;;;;;;;;5091750;28;20027;-77
2022/09/24 06:48:53;;;;;;;32.58;20.08;;;;;;;;;;5107726;28;20023;-77
2022/09/24 06:51:19;;;;;;;29.35;18.73;;;;;;;;;;5112434;28;20548;-77
2022/09/24 06:53:45;;;;;;;30.45;19.33;;;;;;;;;;5112375;28;20027;-78
2022/09/24 06:56:11;;;;;;;28.77;19.27;;;;;;;;;;5111911;28;20397;-78
2022/09/24 06:58:37;;;;;;;29.00;18.60;;;;;;;;;;5098243;28;20104;-77
2022/09/24 07:01:03;;;;;;;28.25;18.20;;;;;;;;;;5091560;28;20028;-77
2022/09/24 07:03:31;;;;;;;31.08;19.73;;;;;;;;;;5092035;28;20237;-77
2022/09/24 07:06:00;;;;;;;35.53;19.88;;;;;;;;;;5091913;28;20016;-77
2022/09/24 07:08:26;;;;;;;33.38;19.08;;;;;;;;;;5091757;28;20355;-77
2022/09/24 07:10:52;;;;;;;31.45;19.50;;;;;;;;;;5091782;28;20053;-77
2022/09/24 07:13:20;;;;;;;31.63;19.60;;;;;;;;;;5091982;28;20039;-77
2022/09/24 07:15:46;;;;;;;29.90;18.85;;;;;;;;;;5091579;28;20051;-77
2022/09/24 07:18:12;;;;;;;32.67;19.80;;;;;;;;;;5091516;28;20086;-77
2022/09/24 07:20:38;;;;;;;30.73;19.58;;;;;;;;;;5091691;28;20038;-78
2022/09/24 07:23:05;;;;;;;29.92;18.60;;;;;;;;;;5091579;28;20451;-77
2022/09/24 07:25:31;;;;;;;35.17;19.27;;;;;;;;;;5091685;28;20020;-77
2022/09/24 07:28:01;;;;;;;31.67;19.50;;;;;;;;;;5091574;28;20028;-78
2022/09/24 07:30:27;;;;;;;37.17;22.25;;;;;;;;;;5091602;28;20020;-77
2022/09/24 07:32:56;;;;;;;37.85;21.90;;;;;;;;;;5091419;28;20028;-77
2022/09/24 07:35:22;;;;;;;34.22;19.00;;;;;;;;;;5091639;28;20309;-78
2022/09/24 07:37:49;;;;;;;36.05;20.55;;;;;;;;;;5091678;28;20355;-78
2022/09/24 07:40:15;;;;;;;33.72;19.48;;;;;;;;;;5093715;28;20514;-77
2022/09/24 07:42:47;;;;;;;39.45;20.77;;;;;;;;;;5123110;28;20073;-77
2022/09/24 07:45:16;;;;;;;34.42;19.90;;;;;;;;;;5117597;28;20012;-77
2022/09/24 07:47:42;;;;;;;38.88;20.75;;;;;;;;;;5124309;28;20016;-78
2022/09/24 07:50:08;;;;;;;33.42;18.38;;;;;;;;;;5104518;28;20034;-77
2022/09/24 07:52:34;;;;;;;39.22;19.92;;;;;;;;;;5121975;28;20035;-77
2022/09/24 07:55:00;;;;;;;33.17;19.80;;;;;;;;;;5112146;28;20409;-77
2022/09/24 07:57:26;;;;;;;40.97;22.13;;;;;;;;;;5113543;27;20027;-77
2022/09/24 07:59:52;;;;;;;37.72;20.90;;;;;;;;;;5107309;27;20032;-78
2022/09/24 08:02:19;;;;;;;32.85;20.15;;;;;;;;;;5121002;27;20470;-77
2022/09/24 08:04:45;;;;;;;37.72;20.65;;;;;;;;;;5112097;27;20023;-77
2022/09/24 08:07:12;;;;;;;35.45;19.67;;;;;;;;;;5116717;27;20024;-77
2022/09/24 08:09:38;;;;;;;39.65;19.75;;;;;;;;;;5121521;27;20030;-77
2022/09/24 08:12:05;;;;;;;36.35;19.65;;;;;;;;;;5102889;27;20366;-77
2022/09/24 08:14:31;;;;;;;37.55;20.02;;;;;;;;;;5119809;27;20123;-78
2022/09/24 08:16:57;;;;;;;40.15;20.73;;;;;;;;;;5115356;27;20043;-77
2022/09/24 08:19:23;;;;;;;39.40;19.58;;;;;;;;;;5119505;27;20510;-77
2022/09/24 08:21:49;;;;;;;42.38;19.55;;;;;;;;;;5117139;27;20035;-77
2022/09/24 08:24:16;;;;;;;41.42;20.00;;;;;;;;;;5115697;27;20021;-77
2022/09/24 08:26:42;;;;;;;43.90;21.58;;;;;;;;;;5118117;27;20027;-77
2022/09/24 08:29:09;;;;;;;46.47;22.42;;;;;;;;;;5111536;27;20099;-77
2022/09/24 08:31:36;;;;;;;47.00;23.10;;;;;;;;;;5113815;27;20020;-77
2022/09/24 08:34:01;;;;;;;50.28;22.60;;;;;;;;;;5109694;27;20023;-77
2022/09/24 08:36:28;;;;;;;42.78;22.38;;;;;;;;;;5107323;27;20397;-78
2022/09/24 08:38:55;;;;;;;49.00;22.50;;;;;;;;;;5105314;27;20028;-77
2022/09/24 08:41:32;;;;;;;44.10;22.48;;;;;;;;;;5110313;28;20008;-78
2022/09/24 08:44:01;;;;;;;49.42;23.23;;;;;;;;;;5101657;28;20100;-77
2022/09/24 08:49:16;;;;;;;52.53;23.70;;;;;;;;;;5103370;28;20504;-77
2022/09/24 08:52:11;;;;;;;47.33;22.40;;;;;;;;;;5120304;27;20073;-77
2022/09/24 08:54:38;;;;;;;60.42;25.25;;;;;;;;;;5023961;28;20077;-77
2022/09/24 08:57:11;;;;;;;47.10;22.83;;;;;;;;;;5106334;27;20024;-77
2022/09/24 08:59:37;;;;;;;44.95;22.40;;;;;;;;;;5109977;27;20104;-77
2022/09/24 09:02:06;;;;;;;51.83;22.65;;;;;;;;;;5120888;27;20031;-77
2022/09/24 09:04:45;;;;;;;44.92;22.63;;;;;;;;;;5123990;27;20032;-77
2022/09/24 09:07:13;;;;;;;48.80;22.70;;;;;;;;;;5119476;27;20063;-79
2022/09/24 09:09:45;;;;;;;44.72;22.35;;;;;;;;;;5121580;27;20031;-77
2022/09/24 09:12:17;;;;;;;58.70;24.65;;;;;;;;;;5122177;27;20023;-77
2022/09/24 09:14:43;;;;;;;45.00;21.93;;;;;;;;;;5122621;27;20032;-77
2022/09/24 09:17:20;;;;;;;46.97;22.83;;;;;;;;;;5126598;27;20437;-77
2022/09/24 09:19:48;;;;;;;47.95;21.70;;;;;;;;;;5119757;27;20019;-76
2022/09/24 09:22:15;;;;;;;43.88;21.15;;;;;;;;;;5124400;27;20057;-76
2022/09/24 09:24:44;;;;;;;45.42;21.85;;;;;;;;;;5121639;27;20038;-76
2022/09/24 09:27:14;;;;;;;41.30;21.35;;;;;;;;;;5123384;27;20027;-76
2022/09/24 09:29:41;;;;;;;44.63;21.00;;;;;;;;;;5122187;27;20012;-76
2022/09/24 09:32:19;;;;;;;46.05;22.08;;;;;;;;;;5113401;27;20541;-76
2022/09/24 09:34:54;;;;;;;43.78;21.13;;;;;;;;;;5113150;28;20080;-76
2022/09/24 09:37:27;;;;;;;40.70;20.17;;;;;;;;;;5113114;28;20034;-76
2022/09/24 09:40:08;;;;;;;42.45;21.25;;;;;;;;;;5113471;28;20078;-76
2022/09/24 09:42:37;;;;;;;34.72;19.30;;;;;;;;;;5113538;28;20020;-76
2022/09/24 09:45:17;;;;;;;38.05;20.67;;;;;;;;;;5113216;28;20106;-76
2022/09/24 09:47:46;;;;;;;34.00;20.02;;;;;;;;;;5113275;28;20055;-76
2022/09/24 09:50:13;;;;;;;38.28;20.58;;;;;;;;;;5112943;28;20058;-76
2022/09/24 09:52:39;;;;;;;34.88;19.75;;;;;;;;;;5112835;28;20359;-76
2022/09/24 09:55:06;;;;;;;32.88;18.45;;;;;;;;;;5111880;28;20365;-76
2022/09/24 09:57:34;;;;;;;33.78;19.63;;;;;;;;;;5112260;28;20023;-76
2022/09/24 10:00:00;;;;;;;37.72;20.80;;;;;;;;;;5112500;28;20028;-76
2022/09/24 10:02:27;;;;;;;32.25;20.02;;;;;;;;;;5111979;28;20494;-76
2022/09/24 10:04:58;;;;;;;35.20;19.75;;;;;;;;;;5112088;28;20027;-76
2022/09/24 10:07:24;;;;;;;29.15;18.67;;;;;;;;;;5109358;28;20039;-76
2022/09/24 10:10:01;;;;;;;31.80;19.10;;;;;;;;;;5109371;28;20466;-76
2022/09/24 10:12:27;;;;;;;31.02;18.70;;;;;;;;;;5112812;28;20023;-77
2022/09/24 10:14:58;;;;;;;29.50;18.63;;;;;;;;;;5112768;28;20414;-76
2022/09/24 10:17:26;;;;;;;32.53;18.58;;;;;;;;;;5112173;28;20039;-76
2022/09/24 10:19:53;;;;;;;27.13;17.55;;;;;;;;;;5111648;28;20077;-76
2022/09/24 10:22:23;;;;;;;32.42;19.70;;;;;;;;;;5112313;28;20072;-76
2022/09/24 10:24:49;;;;;;;27.20;17.50;;;;;;;;;;5098086;28;20108;-76
2022/09/24 10:27:28;;;;;;;27.25;17.50;;;;;;;;;;5100515;28;20032;-75
2022/09/24 10:32:40;;;;;;;25.80;16.83;;;;;;;;;;5102158;28;20038;-76
2022/09/24 10:35:21;;;;;;;24.10;16.02;;;;;;;;;;5085189;28;20032;-75
2022/09/24 10:37:51;;;;;;;28.58;16.83;;;;;;;;;;5106174;28;20453;-76
2022/09/24 10:40:22;;;;;;;23.90;14.50;;;;;;;;;;5104940;28;20069;-76
2022/09/24 10:42:54;;;;;;;22.70;15.13;;;;;;;;;;5103106;28;20350;-76
2022/09/24 10:45:21;;;;;;;22.50;14.23;;;;;;;;;;5105947;28;20365;-76
2022/09/24 10:48:08;;;;;;;23.27;13.77;;;;;;;;;;5099204;28;20024;-76
2022/09/24 10:50:38;;;;;;;20.08;13.93;;;;;;;;;;5099358;28;20134;-77
2022/09/24 10:53:08;;;;;;;19.27;13.65;;;;;;;;;;5090647;28;20054;-76
2022/09/24 10:55:52;;;;;;;22.17;14.85;;;;;;;;;;5099157;28;20028;-76
2022/09/24 10:58:32;;;;;;;21.33;14.20;;;;;;;;;;5095814;28;20409;-76
2022/09/24 11:01:16;;;;;;;22.25;14.68;;;;;;;;;;5103122;28;20020;-75
2022/09/24 11:04:04;;;;;;;20.02;13.48;;;;;;;;;;5094398;28;20136;-75
2022/09/24 11:06:45;;;;;;;22.40;14.65;;;;;;;;;;5057130;28;20043;-76
2022/09/24 11:09:11;;;;;;;21.42;14.23;;;;;;;;;;5103498;28;20036;-75
2022/09/24 11:11:40;;;;;;;20.02;13.95;;;;;;;;;;5097984;28;20028;-75
2022/09/24 11:14:36;;;;;;;17.95;12.55;;;;;;;;;;5102116;28;20020;-74
2022/09/24 11:17:20;;;;;;;18.33;12.05;;;;;;;;;;5078383;28;20039;-75
2022/09/24 11:20:09;;;;;;;17.23;12.15;;;;;;;;;;5084629;28;20023;-75
2022/09/24 11:22:54;;;;;;;14.77;11.05;;;;;;;;;;5108001;28;20076;-75
2022/09/24 11:25:20;;;;;;;15.43;10.95;;;;;;;;;;5108065;28;20024;-75
2022/09/24 11:27:51;;;;;;;14.10;8.90;;;;;;;;;;5106209;28;20027;-76
2022/09/24 11:30:21;;;;;;;12.27;9.27;;;;;;;;;;5094924;28;20028;-76
2022/09/24 11:33:06;;;;;;;12.27;9.02;;;;;;;;;;5100427;28;20029;-76
2022/09/24 11:35:35;;;;;;;13.85;9.35;;;;;;;;;;5106836;28;20111;-76
2022/09/24 11:38:04;;;;;;;9.38;7.25;;;;;;;;;;5107133;28;20442;-76
2022/09/24 11:40:46;;;;;;;8.00;5.78;;;;;;;;;;5111700;28;20423;-76
2022/09/24 11:43:32;;;;;;;7.15;4.90;;;;;;;;;;5099341;28;20347;-75
2022/09/24 11:46:16;;;;;;;6.40;4.65;;;;;;;;;;5104347;28;20089;-75
2022/09/24 11:48:54;;;;;;;6.38;5.18;;;;;;;;;;5106121;28;20458;-76
2022/09/24 11:51:32;;;;;;;8.88;6.22;;;;;;;;;;5101683;28;20032;-76
2022/09/24 11:54:02;;;;;;;8.80;6.00;;;;;;;;;;5099451;28;20027;-76
2022/09/24 11:56:48;;;;;;;7.95;5.25;;;;;;;;;;5107534;28;20075;-76
2022/09/24 11:59:33;;;;;;;6.68;5.25;;;;;;;;;;5097896;28;20046;-75
2022/09/24 12:02:04;;;;;;;6.55;5.05;;;;;;;;;;5102664;28;20035;-76
2022/09/24 12:04:49;;;;;;;7.07;5.20;;;;;;;;;;5101203;28;20523;-75
2022/09/24 12:07:18;;;;;;;7.00;5.60;;;;;;;;;;5100776;28;20077;-75
2022/09/24 12:10:04;;;;;;;8.50;5.70;;;;;;;;;;5100276;28;20024;-76
2022/09/24 12:12:37;;;;;;;6.60;5.00;;;;;;;;;;5066842;28;20455;-75
2022/09/24 12:15:21;;;;;;;4.93;4.15;;;;;;;;;;5102733;28;20075;-75
2022/09/24 12:17:59;;;;;;;5.65;4.00;;;;;;;;;;5089507;28;20883;-75
2022/09/24 12:20:29;;;;;;;6.20;4.53;;;;;;;;;;5084005;28;20024;-75
2022/09/24 12:22:59;;;;;;;4.95;3.97;;;;;;;;;;5106092;28;20414;-75
2022/09/24 12:25:26;;;;;;;8.73;5.85;;;;;;;;;;5105978;28;20019;-75
2022/09/24 12:27:52;;;;;;;8.30;5.82;;;;;;;;;;5100951;28;20060;-75
2022/09/24 12:33:13;;;;;;;7.43;5.28;;;;;;;;;;5105257;28;20059;-81
2022/09/24 12:35:42;;;;;;;6.05;4.68;;;;;;;;;;5086054;28;20020;-81
2022/09/24 12:38:19;;;;;;;6.50;5.15;;;;;;;;;;5085998;28;20369;-81
2022/09/24 12:40:57;;;;;;;6.13;4.75;;;;;;;;;;5106821;28;20020;-81
2022/09/24 12:43:34;;;;;;;7.22;4.63;;;;;;;;;;5104503;28;20028;-81
2022/09/24 12:46:02;;;;;;;5.68;4.07;;;;;;;;;;5101203;28;20011;-80
2022/09/24 12:48:29;;;;;;;5.18;3.80;;;;;;;;;;5107748;28;20028;-79
2022/09/24 12:50:59;;;;;;;6.75;4.97;;;;;;;;;;5109659;28;20099;-80
2022/09/24 12:53:28;;;;;;;6.97;4.57;;;;;;;;;;5100792;28;20103;-80
2022/09/24 12:55:58;;;;;;;5.93;4.43;;;;;;;;;;5103194;28;20021;-80
2022/09/24 12:58:27;;;;;;;5.18;4.35;;;;;;;;;;5085949;28;20081;-81
2022/09/24 13:01:04;;;;;;;5.97;4.43;;;;;;;;;;5103805;28;20081;-82
2022/09/24 13:03:33;;;;;;;6.75;4.10;;;;;;;;;;5088371;28;20108;-78
2022/09/24 13:05:59;;;;;;;6.65;4.63;;;;;;;;;;5101496;28;20358;-75
2022/09/24 13:08:34;;;;;;;8.52;4.72;;;;;;;;;;5104208;28;20481;-76
2022/09/24 13:11:04;;;;;;;6.20;4.95;;;;;;;;;;5104217;28;20027;-76
2022/09/24 13:13:32;;;;;;;9.05;4.82;;;;;;;;;;5083109;28;20020;-76
2022/09/24 13:16:02;;;;;;;6.32;4.53;;;;;;;;;;5099491;28;20043;-76
2022/09/24 13:18:30;;;;;;;6.38;4.57;;;;;;;;;;5104223;28;20102;-74
2022/09/24 13:20:59;;;;;;;9.55;4.90;;;;;;;;;;5109659;28;20042;-76
2022/09/24 13:23:26;;;;;;;7.68;5.10;;;;;;;;;;5104772;28;20351;-76
2022/09/24 13:25:56;;;;;;;6.82;4.03;;;;;;;;;;5087941;28;20111;-76
2022/09/24 13:28:25;;;;;;;8.82;4.35;;;;;;;;;;5104563;28;20016;-76
2022/09/24 13:31:10;;;;;;;7.43;4.50;;;;;;;;;;5108684;28;20099;-76
2022/09/24 13:33:40;;;;;;;6.70;4.63;;;;;;;;;;5108307;28;20354;-76
2022/09/24 13:36:32;;;;;;;8.15;4.80;;;;;;;;;;5107913;28;20020;-76
2022/09/24 13:39:11;;;;;;;7.18;4.53;;;;;;;;;;5077635;28;20101;-76
2022/09/24 13:41:40;;;;;;;8.60;3.95;;;;;;;;;;5099526;28;20486;-76
2022/09/24 13:44:28;;;;;;;6.95;3.90;;;;;;;;;;5103466;28;20035;-76
2022/09/24 13:46:58;;;;;;;8.05;4.25;;;;;;;;;;5109944;28;20440;-76
2022/09/24 13:49:25;;;;;;;6.47;4.25;;;;;;;;;;5091678;28;20030;-75
2022/09/24 13:51:59;;;;;;;5.05;3.90;;;;;;;;;;5107583;28;20496;-76
2022/09/24 13:54:34;;;;;;;4.43;3.70;;;;;;;;;;5103554;28;20106;-76
2022/09/24 13:57:12;;;;;;;6.60;3.63;;;;;;;;;;5104827;28;20036;-76
2022/09/24 13:59:38;;;;;;;7.90;3.90;;;;;;;;;;5088933;28;20448;-77
2022/09/24 14:02:04;;;;;;;9.48;4.25;;;;;;;;;;5103771;28;20086;-76
2022/09/24 14:04:30;;;;;;;11.18;4.30;;;;;;;;;;5110080;28;20027;-76
2022/09/24 14:06:57;;;;;;;7.03;4.25;;;;;;;;;;5101506;27;20020;-77
2022/09/24 14:09:31;;;;;;;6.80;3.85;;;;;;;;;;5108342;27;20027;-76
2022/09/24 14:11:59;;;;;;;5.80;4.22;;;;;;;;;;5110119;27;20044;-76
2022/09/24 14:14:26;;;;;;;9.90;4.22;;;;;;;;;;5117375;27;20480;-76
2022/09/24 14:16:55;;;;;;;6.32;4.13;;;;;;;;;;5106469;27;20040;-76
2022/09/24 14:19:22;;;;;;;7.47;4.18;;;;;;;;;;5111699;27;20532;-76
2022/09/24 14:21:56;;;;;;;10.65;4.55;;;;;;;;;;5111503;28;20020;-76
2022/09/24 14:24:23;;;;;;;9.52;4.45;;;;;;;;;;5108855;27;20478;-76
2022/09/24 14:26:59;;;;;;;8.93;4.53;;;;;;;;;;5110677;28;20112;-76
2022/09/24 14:29:27;;;;;;;7.70;4.38;;;;;;;;;;5075199;28;20028;-76
2022/09/24 14:31:55;;;;;;;9.52;4.15;;;;;;;;;;5112284;27;20469;-76
2022/09/24 14:34:25;;;;;;;7.85;3.88;;;;;;;;;;5105758;28;20028;-77
2022/09/24 14:36:51;;;;;;;7.88;3.78;;;;;;;;;;5108104;28;20323;-76
2022/09/24 14:39:17;;;;;;;9.15;3.90;;;;;;;;;;5102504;28;20031;-76
2022/09/24 14:41:43;;;;;;;8.38;4.38;;;;;;;;;;5093585;28;20071;-77
2022/09/24 14:44:21;;;;;;;8.10;4.13;;;;;;;;;;5090128;28;20470;-76
2022/09/24 14:46:50;;;;;;;8.05;4.40;;;;;;;;;;5093865;27;20047;-77
2022/09/24 14:49:24;;;;;;;8.30;3.95;;;;;;;;;;5108923;27;20429;-76
2022/09/24 14:51:55;;;;;;;10.68;4.78;;;;;;;;;;5110997;28;20027;-76
2022/09/24 14:54:26;;;;;;;11.73;3.75;;;;;;;;;;5094023;28;20111;-76
2022/09/24 14:56:52;;;;;;;8.43;4.03;;;;;;;;;;5092050;28;20430;-76